createdAt,value
2018-03-06T00:02:14.512Z,5.40
2018-03-06T00:04:41.985Z,5.40
2018-03-06T00:07:09.470Z,5.40
2018-03-06T00:09:36.949Z,5.40
2018-03-06T00:12:04.438Z,5.40
2018-03-06T00:14:31.900Z,5.40
2018-03-06T00:16:59.375Z,5.40
2018-03-06T00:19:27.615Z,5.30
2018-03-06T00:21:55.078Z,5.30
2018-03-06T00:24:23.293Z,5.30
2018-03-06T00:26:51.536Z,5.30
2018-03-06T00:29:19.017Z,5.30
2018-03-06T00:31:46.480Z,5.30
2018-03-06T00:34:14.726Z,5.30
2018-03-06T00:36:42.204Z,5.20
2018-03-06T00:39:10.468Z,5.30
2018-03-06T00:41:37.920Z,5.30
2018-03-06T00:44:05.391Z,5.20
2018-03-06T00:46:32.868Z,5.30
2018-03-06T00:49:00.366Z,5.30
2018-03-06T00:51:27.838Z,5.30
2018-03-06T00:53:55.296Z,5.30
2018-03-06T00:56:22.819Z,5.30
2018-03-06T00:58:50.241Z,5.20
2018-03-06T01:01:18.466Z,5.20
2018-03-06T01:03:45.942Z,5.20
2018-03-06T01:06:13.433Z,5.20
2018-03-06T01:08:41.664Z,5.20
2018-03-06T01:11:09.937Z,5.20
2018-03-06T01:13:38.174Z,5.20
2018-03-06T01:16:05.640Z,5.20
2018-03-06T01:18:33.108Z,5.20
2018-03-06T01:21:01.286Z,5.20
2018-03-06T01:23:28.771Z,5.10
2018-03-06T01:25:56.253Z,5.20
2018-03-06T01:28:24.497Z,5.20
2018-03-06T01:30:51.988Z,5.10
2018-03-06T01:33:20.241Z,5.00
2018-03-06T01:35:47.725Z,5.00
2018-03-06T01:38:15.962Z,5.00
2018-03-06T01:40:43.445Z,5.00
2018-03-06T01:43:12.077Z,4.90
2018-03-06T01:45:39.533Z,4.90
2018-03-06T01:48:06.991Z,4.80
2018-03-06T01:50:34.473Z,4.80
2018-03-06T01:53:01.949Z,4.70
2018-03-06T01:55:29.422Z,4.60
2018-03-06T01:57:57.664Z,4.50
2018-03-06T02:00:25.143Z,4.50
2018-03-06T02:02:52.625Z,4.50
2018-03-06T02:05:20.120Z,4.50
2018-03-06T02:07:47.606Z,4.60
2018-03-06T02:10:15.089Z,4.50
2018-03-06T02:12:43.305Z,4.50
2018-03-06T02:15:10.749Z,4.50
2018-03-06T02:17:38.224Z,4.50
2018-03-06T02:20:05.722Z,4.40
2018-03-06T02:22:33.945Z,4.40
2018-03-06T02:25:01.441Z,4.30
2018-03-06T02:27:28.896Z,4.30
2018-03-06T02:29:56.365Z,4.20
2018-03-06T02:32:24.592Z,4.30
2018-03-06T02:34:52.072Z,4.30
2018-03-06T02:37:19.576Z,4.30
2018-03-06T02:39:47.025Z,4.40
2018-03-06T02:42:15.257Z,4.40
2018-03-06T02:44:42.733Z,4.40
2018-03-06T02:47:10.247Z,4.40
2018-03-06T02:49:37.721Z,4.30
2018-03-06T02:52:05.214Z,4.30
2018-03-06T02:54:33.452Z,4.20
2018-03-06T02:57:00.936Z,4.10
2018-03-06T02:59:28.376Z,4.20
2018-03-06T03:01:55.837Z,4.20
2018-03-06T03:04:23.288Z,4.40
2018-03-06T03:06:50.745Z,4.40
2018-03-06T03:09:18.214Z,4.40
2018-03-06T03:11:45.660Z,4.50
2018-03-06T03:14:13.111Z,4.50
2018-03-06T03:16:40.572Z,4.60
2018-03-06T03:19:08.009Z,4.60
2018-03-06T03:21:35.492Z,4.60
2018-03-06T03:24:02.981Z,4.60
2018-03-06T03:26:31.245Z,4.70
2018-03-06T03:28:59.479Z,4.70
2018-03-06T03:31:26.980Z,4.70
2018-03-06T03:33:54.437Z,4.80
2018-03-06T03:36:22.664Z,4.70
2018-03-06T03:38:50.185Z,4.70
2018-03-06T03:41:17.653Z,4.80
2018-03-06T03:43:45.088Z,4.80
2018-03-06T03:46:13.337Z,4.70
2018-03-06T03:48:40.821Z,4.70
2018-03-06T03:51:09.068Z,4.90
2018-03-06T03:53:36.510Z,4.80
2018-03-06T03:56:03.952Z,4.90
2018-03-06T03:58:31.409Z,4.90
2018-03-06T04:00:58.865Z,5.00
2018-03-06T04:03:26.340Z,5.00
2018-03-06T04:05:53.816Z,4.90
2018-03-06T04:08:21.301Z,4.80
2018-03-06T04:10:48.781Z,4.80
2018-03-06T04:13:16.268Z,4.80
2018-03-06T04:15:43.739Z,4.80
2018-03-06T04:18:11.186Z,4.70
2018-03-06T04:20:38.660Z,4.70
2018-03-06T04:23:06.145Z,4.60
2018-03-06T04:25:33.622Z,4.70
2018-03-06T04:28:01.104Z,4.70
2018-03-06T04:30:28.599Z,4.70
2018-03-06T04:32:56.821Z,4.70
2018-03-06T04:35:24.272Z,4.70
2018-03-06T04:37:51.727Z,4.80
2018-03-06T04:40:19.184Z,4.80
2018-03-06T04:42:46.656Z,4.80
2018-03-06T04:45:14.130Z,4.80
2018-03-06T04:47:41.652Z,4.90
2018-03-06T04:50:09.129Z,4.90
2018-03-06T04:52:36.713Z,4.90
2018-03-06T04:55:04.180Z,5.00
2018-03-06T04:57:31.648Z,4.90
2018-03-06T04:59:59.872Z,4.90
2018-03-06T05:02:27.327Z,4.90
2018-03-06T05:04:54.816Z,5.00
2018-03-06T05:07:22.329Z,5.00
2018-03-06T05:09:49.774Z,5.10
2018-03-06T05:12:17.228Z,5.10
2018-03-06T05:14:44.696Z,5.10
2018-03-06T05:17:12.188Z,5.10
2018-03-06T05:19:39.668Z,5.00
2018-03-06T05:22:07.915Z,4.90
2018-03-06T05:24:35.392Z,4.90
2018-03-06T05:27:03.634Z,5.10
2018-03-06T05:29:31.102Z,5.10
2018-03-06T05:31:58.589Z,5.20
2018-03-06T05:34:26.824Z,5.10
2018-03-06T05:36:54.282Z,5.10
2018-03-06T05:39:21.758Z,5.10
2018-03-06T05:41:49.232Z,5.10
2018-03-06T05:44:17.491Z,5.00
2018-03-06T05:46:44.949Z,5.00
2018-03-06T05:49:12.423Z,5.00
2018-03-06T05:51:40.677Z,5.10
2018-03-06T05:54:08.141Z,5.10
2018-03-06T05:56:35.616Z,5.10
2018-03-06T05:59:03.846Z,5.10
2018-03-06T06:01:31.316Z,5.10
2018-03-06T06:03:58.801Z,5.10
2018-03-06T06:06:27.034Z,5.20
2018-03-06T06:08:54.624Z,5.10
2018-03-06T06:11:22.105Z,5.20
2018-03-06T06:13:49.567Z,5.20
2018-03-06T06:16:17.845Z,5.20
2018-03-06T06:18:46.076Z,5.20
2018-03-06T06:21:13.540Z,5.20
2018-03-06T06:23:40.997Z,5.30
2018-03-06T06:26:08.476Z,5.30
2018-03-06T06:28:36.734Z,5.50
2018-03-06T06:31:04.231Z,5.50
2018-03-06T06:33:31.702Z,5.50
2018-03-06T06:35:59.174Z,5.60
2018-03-06T06:38:26.679Z,5.60
2018-03-06T06:40:54.911Z,5.70
2018-03-06T06:43:22.380Z,5.70
2018-03-06T06:45:49.847Z,5.90
2018-03-06T06:48:17.324Z,6.00
2018-03-06T06:50:45.559Z,6.10
2018-03-06T06:53:13.045Z,6.10
2018-03-06T06:55:40.502Z,6.10
2018-03-06T06:58:07.991Z,6.00
2018-03-06T07:00:35.456Z,6.10
2018-03-06T07:03:02.925Z,6.10
2018-03-06T07:05:30.384Z,6.10
2018-03-06T07:07:57.855Z,6.10
2018-03-06T07:10:25.333Z,6.20
2018-03-06T07:12:52.776Z,6.10
2018-03-06T07:15:20.261Z,6.20
2018-03-06T07:17:48.493Z,6.00
2018-03-06T07:20:15.976Z,6.10
2018-03-06T07:22:44.291Z,6.00
2018-03-06T07:25:12.573Z,6.10
2018-03-06T07:27:40.067Z,6.10
2018-03-06T07:30:07.517Z,6.10
2018-03-06T07:32:34.988Z,6.20
2018-03-06T07:35:02.446Z,6.20
2018-03-06T07:37:29.908Z,6.20
2018-03-06T07:39:57.362Z,6.20
2018-03-06T07:42:24.809Z,6.30
2018-03-06T07:44:52.296Z,6.30
2018-03-06T07:47:19.966Z,6.40
2018-03-06T07:49:48.207Z,6.60
2018-03-06T07:52:15.665Z,6.50
2018-03-06T07:54:43.111Z,6.60
2018-03-06T07:57:10.586Z,6.70
2018-03-06T07:59:38.061Z,6.80
2018-03-06T08:02:05.525Z,6.70
2018-03-06T08:04:33.764Z,6.70
2018-03-06T08:07:01.236Z,6.70
2018-03-06T08:09:28.693Z,6.70
2018-03-06T08:11:56.186Z,6.70
2018-03-06T08:14:24.539Z,6.80
2018-03-06T08:16:52.005Z,6.90
2018-03-06T08:19:20.245Z,6.90
2018-03-06T08:21:47.692Z,6.90
2018-03-06T08:24:15.170Z,7.00
2018-03-06T08:26:42.636Z,7.00
2018-03-06T08:29:10.097Z,7.00
2018-03-06T08:31:37.575Z,7.10
2018-03-06T08:34:05.816Z,7.30
2018-03-06T08:36:33.264Z,7.30
2018-03-06T08:39:00.745Z,7.50
2018-03-06T08:41:28.189Z,7.60
2018-03-06T08:43:56.140Z,7.70
2018-03-06T08:46:23.664Z,7.80
2018-03-06T08:48:53.020Z,8.00
2018-03-06T08:51:20.489Z,8.10
2018-03-06T08:53:48.734Z,8.60
2018-03-06T08:56:16.189Z,8.50
2018-03-06T08:58:43.637Z,8.70
2018-03-06T09:01:11.083Z,8.50
2018-03-06T09:03:38.592Z,8.40
2018-03-06T09:06:06.646Z,8.40
2018-03-06T09:08:34.097Z,8.40
2018-03-06T09:11:01.564Z,8.30
2018-03-06T09:13:29.069Z,8.30
2018-03-06T09:15:56.505Z,8.40
2018-03-06T09:18:23.999Z,8.60
2018-03-06T09:20:51.488Z,8.80
2018-03-06T09:23:18.953Z,8.90
2018-03-06T09:25:46.426Z,9.60
2018-03-06T09:28:13.919Z,10.30
2018-03-06T09:30:41.416Z,10.50
2018-03-06T09:33:08.868Z,10.80
2018-03-06T09:35:36.323Z,11.10
2018-03-06T09:38:03.892Z,11.20
2018-03-06T09:40:31.349Z,11.30
2018-03-06T09:42:58.851Z,11.50
2018-03-06T09:45:26.360Z,11.70
2018-03-06T09:47:53.870Z,12.20
2018-03-06T09:50:21.366Z,12.10
2018-03-06T09:52:48.814Z,12.20
2018-03-06T09:55:16.305Z,12.00
2018-03-06T09:57:44.580Z,12.40
2018-03-06T10:00:12.841Z,12.90
2018-03-06T10:02:40.351Z,12.90
2018-03-06T10:05:07.824Z,13.30
2018-03-06T10:07:35.303Z,13.60
2018-03-06T10:10:02.885Z,14.20
2018-03-06T10:12:31.129Z,14.70
2018-03-06T10:14:58.612Z,14.70
2018-03-06T10:17:26.081Z,15.00
2018-03-06T10:19:54.329Z,14.90
2018-03-06T10:22:21.792Z,14.90
2018-03-06T10:24:49.277Z,14.90
2018-03-06T10:27:17.580Z,15.00
2018-03-06T10:29:45.065Z,15.00
2018-03-06T10:32:12.530Z,15.00
2018-03-06T10:34:40.713Z,15.00
2018-03-06T10:37:08.180Z,15.00
2018-03-06T10:39:35.656Z,15.00
2018-03-06T10:42:03.133Z,15.10
2018-03-06T10:44:30.584Z,15.80
2018-03-06T10:46:58.060Z,16.30
2018-03-06T10:49:25.517Z,16.50
2018-03-06T10:51:52.997Z,16.70
2018-03-06T10:54:20.473Z,16.80
2018-03-06T10:56:47.949Z,16.40
2018-03-06T10:59:16.201Z,16.90
2018-03-06T11:01:44.631Z,16.80
2018-03-06T11:04:12.093Z,16.70
2018-03-06T11:06:39.559Z,17.20
2018-03-06T11:09:07.059Z,17.20
2018-03-06T11:11:35.312Z,17.90
2018-03-06T11:14:02.757Z,17.90
2018-03-06T11:16:30.247Z,17.60
2018-03-06T11:18:57.690Z,17.30
2018-03-06T11:21:25.153Z,17.50
2018-03-06T11:23:52.631Z,17.50
2018-03-06T11:26:20.938Z,17.90
2018-03-06T11:28:48.368Z,17.90
2018-03-06T11:31:16.600Z,18.30
2018-03-06T11:33:44.075Z,18.30
2018-03-06T11:36:11.528Z,18.40
2018-03-06T11:38:39.009Z,18.70
2018-03-06T11:41:07.257Z,18.90
2018-03-06T11:43:34.712Z,18.90
2018-03-06T11:46:02.208Z,18.40
2018-03-06T11:48:29.657Z,18.20
2018-03-06T11:50:57.897Z,18.20
2018-03-06T11:53:25.373Z,18.10
2018-03-06T11:55:53.626Z,18.20
2018-03-06T11:58:21.096Z,18.10
2018-03-06T12:00:48.613Z,18.40
2018-03-06T12:03:16.093Z,18.00
2018-03-06T12:05:43.565Z,17.90
2018-03-06T12:08:11.062Z,17.80
2018-03-06T12:10:38.547Z,17.90
2018-03-06T12:13:06.014Z,18.10
2018-03-06T12:15:33.480Z,18.10
2018-03-06T12:18:00.929Z,17.90
2018-03-06T12:20:28.378Z,18.10
2018-03-06T12:22:55.841Z,17.80
2018-03-06T12:25:23.329Z,17.50
2018-03-06T12:27:50.809Z,17.60
2018-03-06T12:30:19.043Z,17.50
2018-03-06T12:32:47.301Z,17.50
2018-03-06T12:35:14.797Z,17.70
2018-03-06T12:37:42.253Z,18.30
2018-03-06T12:40:10.487Z,18.50
2018-03-06T12:42:37.989Z,18.50
2018-03-06T12:45:06.226Z,18.60
2018-03-06T12:47:33.674Z,18.60
2018-03-06T12:50:01.171Z,19.00
2018-03-06T12:52:28.617Z,18.60
2018-03-06T12:54:56.161Z,18.50
2018-03-06T12:57:23.577Z,18.70
2018-03-06T12:59:51.046Z,18.40
2018-03-06T13:02:18.526Z,18.20
2018-03-06T13:04:45.992Z,17.90
2018-03-06T13:07:13.484Z,18.00
2018-03-06T13:09:41.709Z,18.80
2018-03-06T13:12:09.196Z,18.80
2018-03-06T13:14:36.660Z,18.80
2018-03-06T13:17:04.885Z,19.30
2018-03-06T13:19:32.336Z,19.30
2018-03-06T13:21:59.818Z,19.50
2018-03-06T13:24:27.273Z,19.80
2018-03-06T13:26:54.764Z,19.10
2018-03-06T13:29:23.034Z,19.20
2018-03-06T13:31:50.497Z,19.20
2018-03-06T13:34:18.773Z,18.40
2018-03-06T13:36:47.004Z,18.70
2018-03-06T13:39:14.444Z,18.70
2018-03-06T13:41:41.925Z,19.00
2018-03-06T13:44:09.376Z,18.80
2018-03-06T13:46:36.844Z,18.80
2018-03-06T13:49:04.323Z,18.30
2018-03-06T13:51:31.952Z,18.70
2018-03-06T13:53:59.409Z,18.70
2018-03-06T13:56:27.469Z,18.30
2018-03-06T13:58:54.980Z,18.10
2018-03-06T14:01:22.473Z,18.40
2018-03-06T14:03:49.925Z,18.50
2018-03-06T14:06:17.413Z,18.40
2018-03-06T14:08:44.885Z,17.70
2018-03-06T14:11:12.329Z,17.60
2018-03-06T14:13:39.818Z,17.40
2018-03-06T14:16:08.053Z,18.00
2018-03-06T14:18:35.542Z,18.00
2018-03-06T14:21:03.008Z,17.90
2018-03-06T14:23:31.257Z,17.30
2018-03-06T14:25:58.746Z,17.30
2018-03-06T14:28:26.982Z,16.60
2018-03-06T14:30:54.429Z,16.60
2018-03-06T14:33:21.886Z,16.60
2018-03-06T14:35:49.421Z,16.30
2018-03-06T14:38:16.893Z,16.40
2018-03-06T14:40:44.375Z,16.40
2018-03-06T14:43:11.849Z,16.20
2018-03-06T14:45:39.292Z,16.00
2018-03-06T14:48:06.824Z,16.00
2018-03-06T14:50:34.318Z,15.90
2018-03-06T14:53:01.822Z,15.70
2018-03-06T14:55:29.318Z,15.80
2018-03-06T14:57:56.892Z,15.80
2018-03-06T15:00:24.367Z,16.10
2018-03-06T15:02:52.580Z,15.60
2018-03-06T15:05:20.057Z,15.60
2018-03-06T15:07:47.512Z,15.40
2018-03-06T15:10:15.002Z,15.40
2018-03-06T15:12:42.483Z,15.30
2018-03-06T15:15:09.950Z,15.40
2018-03-06T15:17:37.441Z,15.40
2018-03-06T15:20:04.896Z,15.30
2018-03-06T15:22:32.362Z,15.50
2018-03-06T15:24:59.857Z,15.50
2018-03-06T15:27:28.070Z,15.10
2018-03-06T15:29:55.552Z,15.10
2018-03-06T15:32:23.765Z,14.90
2018-03-06T15:34:51.248Z,14.90
2018-03-06T15:37:18.753Z,14.90
2018-03-06T15:39:46.535Z,14.70
2018-03-06T15:42:14.345Z,14.70
2018-03-06T15:44:41.918Z,14.70
2018-03-06T15:47:09.453Z,14.70
2018-03-06T15:49:36.923Z,14.80
2018-03-06T15:52:04.422Z,14.80
2018-03-06T15:54:31.994Z,14.80
2018-03-06T15:56:59.518Z,14.70
2018-03-06T15:59:27.027Z,14.60
2018-03-06T16:01:54.575Z,14.60
2018-03-06T16:04:22.887Z,14.70
2018-03-06T16:06:51.236Z,14.90
2018-03-06T16:09:19.472Z,14.90
2018-03-06T16:11:47.721Z,14.70
2018-03-06T16:14:15.250Z,14.70
2018-03-06T16:16:42.739Z,14.50
2018-03-06T16:19:10.236Z,14.60
2018-03-06T16:21:38.514Z,14.50
2018-03-06T16:24:06.022Z,14.40
2018-03-06T16:26:33.543Z,14.40
2018-03-06T16:29:01.112Z,14.40
2018-03-06T16:31:28.626Z,14.30
2018-03-06T16:33:56.122Z,14.40
2018-03-06T16:36:24.402Z,14.20
2018-03-06T16:38:51.885Z,14.20
2018-03-06T16:41:19.388Z,14.20
2018-03-06T16:43:46.995Z,14.00
2018-03-06T16:46:14.466Z,13.50
2018-03-06T16:48:41.954Z,13.20
2018-03-06T16:51:09.466Z,13.00
2018-03-06T16:53:36.941Z,13.00
2018-03-06T16:56:04.426Z,12.90
2018-03-06T16:58:31.955Z,12.80
2018-03-06T17:00:59.454Z,12.80
2018-03-06T17:03:26.961Z,12.60
2018-03-06T17:05:54.491Z,12.50
2018-03-06T17:08:21.977Z,12.40
2018-03-06T17:10:49.485Z,12.30
2018-03-06T17:13:17.770Z,12.10
2018-03-06T17:15:46.034Z,11.90
2018-03-06T17:18:13.559Z,11.90
2018-03-06T17:20:41.038Z,11.80
2018-03-06T17:23:08.552Z,11.80
2018-03-06T17:25:36.981Z,11.80
2018-03-06T17:28:04.518Z,11.80
2018-03-06T17:30:32.277Z,11.90
2018-03-06T17:32:59.766Z,11.90
2018-03-06T17:35:27.302Z,12.00
2018-03-06T17:37:54.793Z,12.00
2018-03-06T17:40:23.063Z,11.90
2018-03-06T17:42:51.342Z,12.00
2018-03-06T17:45:19.590Z,12.10
2018-03-06T17:47:47.091Z,12.10
2018-03-06T17:50:15.359Z,12.20
2018-03-06T17:52:43.612Z,12.10
2018-03-06T17:55:11.120Z,12.10
2018-03-06T17:57:38.652Z,12.00
2018-03-06T18:00:06.926Z,11.70
2018-03-06T18:02:34.512Z,11.70
2018-03-06T18:05:02.032Z,11.60
2018-03-06T18:07:29.541Z,11.60
2018-03-06T18:09:57.062Z,11.60
2018-03-06T18:12:25.321Z,11.70
2018-03-06T18:14:52.802Z,11.60
2018-03-06T18:17:20.310Z,11.70
2018-03-06T18:19:47.810Z,11.70
2018-03-06T18:22:16.053Z,11.80
2018-03-06T18:24:43.545Z,11.80
2018-03-06T18:27:11.786Z,11.60
2018-03-06T18:29:39.290Z,11.60
2018-03-06T18:32:06.784Z,11.60
2018-03-06T18:34:34.352Z,11.70
2018-03-06T18:37:01.899Z,11.80
2018-03-06T18:39:29.377Z,11.70
2018-03-06T18:41:56.929Z,11.60
2018-03-06T18:44:24.558Z,11.70
2018-03-06T18:46:52.248Z,11.80
2018-03-06T18:49:19.775Z,11.70
2018-03-06T18:51:47.295Z,11.60
2018-03-06T18:54:15.588Z,11.50
2018-03-06T18:56:43.082Z,11.40
2018-03-06T18:59:10.594Z,11.60
2018-03-06T19:02:15.369Z,11.50
2018-03-06T19:04:54.846Z,11.50
2018-03-06T19:07:22.357Z,11.70
2018-03-06T19:09:49.883Z,11.60
2018-03-06T19:12:17.429Z,11.50
2018-03-06T19:14:45.702Z,11.40
2018-03-06T19:17:13.988Z,11.50
2018-03-06T19:19:41.518Z,11.40
2018-03-06T19:22:09.058Z,11.50
2018-03-06T19:24:36.607Z,11.50
2018-03-06T19:27:04.124Z,11.60
2018-03-06T19:29:31.669Z,11.70
2018-03-06T19:31:59.960Z,11.70
2018-03-06T19:34:28.910Z,11.80
2018-03-06T19:36:56.401Z,11.70
2018-03-06T19:39:24.639Z,11.90
2018-03-06T19:41:52.142Z,11.80
2018-03-06T19:44:20.475Z,11.90
2018-03-06T19:46:47.933Z,11.90
2018-03-06T19:49:15.425Z,11.90
2018-03-06T19:51:43.709Z,12.10
2018-03-06T19:54:11.236Z,12.00
2018-03-06T19:56:39.638Z,12.00
2018-03-06T19:59:07.143Z,12.10
2018-03-06T20:01:35.295Z,12.10
2018-03-06T20:04:02.791Z,12.10
2018-03-06T20:06:30.290Z,12.00
2018-03-06T20:08:58.924Z,12.00
2018-03-06T20:11:26.448Z,12.00
2018-03-06T20:13:53.948Z,12.00
2018-03-06T20:16:21.872Z,12.00
2018-03-06T20:21:56.133Z,11.80
2018-03-06T20:24:29.199Z,11.80
2018-03-06T20:26:56.758Z,11.80
2018-03-06T20:29:24.293Z,11.70
2018-03-06T20:31:58.233Z,11.70
2018-03-06T20:34:25.742Z,11.60
2018-03-06T20:36:53.234Z,11.50
2018-03-06T20:39:26.524Z,11.50
2018-03-06T20:41:54.106Z,11.50
2018-03-06T20:44:21.667Z,11.50
2018-03-06T20:46:54.951Z,11.50
2018-03-06T20:49:22.825Z,11.40
2018-03-06T20:51:50.357Z,11.40
2018-03-06T20:54:23.467Z,11.40
2018-03-06T20:56:51.076Z,11.40
2018-03-06T20:59:19.817Z,11.40
2018-03-06T21:01:47.396Z,11.40
2018-03-06T21:04:14.921Z,11.40
2018-03-06T21:06:43.610Z,11.40
2018-03-06T21:09:11.142Z,11.40
2018-03-06T21:11:39.404Z,11.30
2018-03-06T21:14:06.895Z,11.30
2018-03-06T21:16:34.371Z,11.30
2018-03-06T21:19:01.880Z,11.30
2018-03-06T21:21:29.408Z,11.30
2018-03-06T21:23:56.889Z,11.20
2018-03-06T21:26:24.379Z,11.10
2018-03-06T21:28:51.858Z,11.00
2018-03-06T21:31:19.394Z,11.00
2018-03-06T21:33:47.598Z,10.90
2018-03-06T21:36:15.104Z,10.80
2018-03-06T21:38:43.367Z,10.50
2018-03-06T21:41:10.847Z,10.50
2018-03-06T21:43:38.337Z,10.50
2018-03-06T21:46:05.811Z,10.40
2018-03-06T21:48:33.289Z,10.50
2018-03-06T21:51:00.783Z,10.50
2018-03-06T21:53:28.354Z,10.50
2018-03-06T21:55:55.795Z,10.40
2018-03-06T21:58:23.335Z,10.50
2018-03-06T22:00:51.563Z,10.40
2018-03-06T22:03:19.846Z,10.40
2018-03-06T22:05:47.311Z,10.40
2018-03-06T22:08:14.764Z,10.40
2018-03-06T22:10:42.249Z,10.50
2018-03-06T22:13:10.485Z,10.50
2018-03-06T22:15:37.944Z,10.50
2018-03-06T22:18:05.418Z,10.50
2018-03-06T22:20:32.869Z,10.40
2018-03-06T22:23:00.347Z,10.30
2018-03-06T22:25:27.790Z,10.20
2018-03-06T22:27:55.275Z,10.10
2018-03-06T22:30:23.496Z,10.10
2018-03-06T22:32:50.976Z,10.10
2018-03-06T22:35:18.432Z,10.10
2018-03-06T22:37:45.929Z,10.20
2018-03-06T22:40:13.386Z,10.20
2018-03-06T22:42:40.867Z,10.20
2018-03-06T22:45:08.324Z,10.40
2018-03-06T22:47:35.796Z,10.50
2018-03-06T22:50:03.254Z,10.50
2018-03-06T22:52:30.711Z,10.60
2018-03-06T22:54:58.144Z,10.50
2018-03-06T22:57:25.621Z,10.30
2018-03-06T22:59:53.087Z,10.20
2018-03-06T23:02:20.563Z,10.30
2018-03-06T23:04:48.009Z,10.40
2018-03-06T23:07:15.500Z,10.40
2018-03-06T23:09:43.718Z,10.20
2018-03-06T23:12:12.052Z,10.20
2018-03-06T23:14:40.297Z,9.80
2018-03-06T23:17:07.736Z,9.70
2018-03-06T23:19:35.227Z,9.70
2018-03-06T23:22:02.696Z,9.70
2018-03-06T23:24:30.929Z,9.60
2018-03-06T23:26:58.395Z,9.60
2018-03-06T23:29:25.867Z,9.70
2018-03-06T23:31:53.354Z,9.70
2018-03-06T23:34:20.838Z,9.70
2018-03-06T23:36:48.383Z,9.90
2018-03-06T23:39:15.826Z,9.80
2018-03-06T23:41:43.274Z,9.80
2018-03-06T23:44:10.751Z,9.90
2018-03-06T23:46:38.243Z,10.00
2018-03-06T23:49:05.695Z,10.00
2018-03-06T23:51:33.196Z,10.00
2018-03-06T23:54:01.430Z,9.80
2018-03-06T23:56:28.871Z,9.70
2018-03-06T23:58:56.337Z,9.70
